createdAt,value
2022-10-07T00:01:17.329Z,12.36
2022-10-07T00:03:46.844Z,12.60
2022-10-07T00:06:16.643Z,12.53
2022-10-07T00:08:46.380Z,12.56
2022-10-07T00:11:15.936Z,12.53
2022-10-07T00:13:45.977Z,12.56
2022-10-07T00:16:15.778Z,12.48
2022-10-07T00:18:44.464Z,12.29
2022-10-07T00:21:15.681Z,12.51
2022-10-07T00:23:44.774Z,12.33
2022-10-07T00:26:15.670Z,12.41
2022-10-07T00:28:44.294Z,12.13
2022-10-07T00:31:15.445Z,12.40
2022-10-07T00:33:44.507Z,12.18
2022-10-07T00:36:16.027Z,12.45
2022-10-07T00:38:43.977Z,12.88
2022-10-07T00:41:18.909Z,12.58
2022-10-07T00:43:47.415Z,12.10
2022-10-07T00:46:22.275Z,12.46
2022-10-07T00:48:50.959Z,12.09
2022-10-07T00:51:21.024Z,12.37
2022-10-07T00:53:51.002Z,12.36
2022-10-07T00:56:19.239Z,12.05
2022-10-07T00:58:49.004Z,12.33
2022-10-07T01:01:18.430Z,12.13
2022-10-07T01:03:48.134Z,12.16
2022-10-07T01:06:16.619Z,12.01
2022-10-07T01:08:48.022Z,12.25
2022-10-07T01:11:18.961Z,12.72
2022-10-07T01:13:55.800Z,12.33
2022-10-07T01:16:30.573Z,12.22
2022-10-07T01:19:05.945Z,12.16
2022-10-07T01:21:41.194Z,12.10
2022-10-07T01:24:20.330Z,12.15
2022-10-07T01:26:55.673Z,12.06
2022-10-07T01:29:29.749Z,11.97
2022-10-07T01:32:03.643Z,11.95
2022-10-07T01:34:34.220Z,11.79
2022-10-07T01:37:04.253Z,11.77
2022-10-07T01:39:37.841Z,11.92
2022-10-07T01:42:07.789Z,11.74
2022-10-07T01:44:36.549Z,11.68
2022-10-07T01:47:04.721Z,11.42
2022-10-07T01:49:33.139Z,11.42
2022-10-07T01:52:15.818Z,11.79
2022-10-07T01:54:59.140Z,11.77
2022-10-07T01:57:37.891Z,11.64
2022-10-07T02:00:10.122Z,11.45
2022-10-07T02:02:56.587Z,11.63
2022-10-07T02:05:31.878Z,11.44
2022-10-07T02:08:12.770Z,11.43
2022-10-07T02:10:53.321Z,11.49
2022-10-07T02:13:29.855Z,11.15
2022-10-07T02:16:02.845Z,10.79
2022-10-07T02:18:32.540Z,10.92
2022-10-07T02:21:04.192Z,10.97
2022-10-07T02:23:34.370Z,11.26
2022-10-07T02:26:04.605Z,11.61
2022-10-07T02:28:36.313Z,11.54
2022-10-07T02:31:05.417Z,11.29
2022-10-07T02:33:34.380Z,11.31
2022-10-07T02:36:05.118Z,11.49
2022-10-07T02:38:33.546Z,11.22
2022-10-07T02:41:08.267Z,11.71
2022-10-07T02:43:41.789Z,11.69
2022-10-07T02:46:12.831Z,11.36
2022-10-07T02:48:45.354Z,11.29
2022-10-07T02:51:21.070Z,11.26
2022-10-07T02:53:51.255Z,11.18
2022-10-07T02:56:20.935Z,11.07
2022-10-07T02:58:51.394Z,11.28
2022-10-07T03:01:22.586Z,11.22
2022-10-07T03:03:50.928Z,10.74
2022-10-07T03:06:20.368Z,10.98
2022-10-07T03:08:49.033Z,10.75
2022-10-07T03:11:17.331Z,10.62
2022-10-07T03:13:45.861Z,10.53
2022-10-07T03:16:15.816Z,10.76
2022-10-07T03:18:44.141Z,10.32
2022-10-07T03:21:12.438Z,10.25
2022-10-07T03:23:40.821Z,10.19
2022-10-07T03:26:08.880Z,10.08
2022-10-07T03:28:37.711Z,10.07
2022-10-07T03:31:07.030Z,9.97
2022-10-07T03:33:37.466Z,10.20
2022-10-07T03:36:07.957Z,9.94
2022-10-07T03:38:36.542Z,10.04
2022-10-07T03:41:06.394Z,9.96
2022-10-07T03:43:34.913Z,9.79
2022-10-07T03:46:03.423Z,9.88
2022-10-07T03:48:31.844Z,9.92
2022-10-07T03:51:01.377Z,10.29
2022-10-07T03:53:29.872Z,9.90
2022-10-07T03:55:58.133Z,9.97
2022-10-07T03:58:26.358Z,9.97
2022-10-07T04:01:05.564Z,10.34
2022-10-07T04:03:34.360Z,9.92
2022-10-07T04:06:04.763Z,10.20
2022-10-07T04:08:34.024Z,10.14
2022-10-07T04:11:03.146Z,10.41
2022-10-07T04:13:31.913Z,10.23
2022-10-07T04:16:00.509Z,10.16
2022-10-07T04:18:28.698Z,10.13
2022-10-07T04:21:00.420Z,10.57
2022-10-07T04:23:30.313Z,10.44
2022-10-07T04:25:58.670Z,10.17
2022-10-07T04:28:27.538Z,10.05
2022-10-07T04:30:55.780Z,9.66
2022-10-07T04:33:25.081Z,9.79
2022-10-07T04:35:53.558Z,9.78
2022-10-07T04:38:25.228Z,9.53
2022-10-07T04:40:57.380Z,9.82
2022-10-07T04:43:24.811Z,9.56
2022-10-07T04:45:54.728Z,9.89
2022-10-07T04:48:24.745Z,9.99
2022-10-07T04:50:53.058Z,9.71
2022-10-07T04:53:21.844Z,9.79
2022-10-07T04:55:52.676Z,9.94
2022-10-07T04:58:22.397Z,9.83
2022-10-07T05:00:51.846Z,9.76
2022-10-07T05:03:22.422Z,9.86
2022-10-07T05:05:52.606Z,9.91
2022-10-07T05:08:24.447Z,9.92
2022-10-07T05:10:56.171Z,10.07
2022-10-07T05:13:27.108Z,10.03
2022-10-07T05:15:56.631Z,10.00
2022-10-07T05:18:26.462Z,10.06
2022-10-07T05:20:55.529Z,10.02
2022-10-07T05:23:28.541Z,10.45
2022-10-07T05:26:01.998Z,10.77
2022-10-07T05:28:32.069Z,11.39
2022-10-07T05:31:05.841Z,11.95
2022-10-07T05:33:34.269Z,12.10
2022-10-07T05:36:02.699Z,12.79
2022-10-07T05:38:31.074Z,13.36
2022-10-07T05:41:00.616Z,14.24
2022-10-07T05:43:29.301Z,14.66
2022-10-07T05:46:03.600Z,15.76
2022-10-07T05:48:38.096Z,16.04
2022-10-07T05:51:08.179Z,15.83
2022-10-07T05:53:36.868Z,15.69
2022-10-07T05:56:06.898Z,15.89
2022-10-07T05:58:36.253Z,15.77
2022-10-07T06:01:12.980Z,16.27
2022-10-07T06:03:42.283Z,16.28
2022-10-07T06:06:10.794Z,16.53
2022-10-07T06:08:38.899Z,17.11
2022-10-07T06:11:25.493Z,17.84
2022-10-07T06:13:55.574Z,17.96
2022-10-07T06:16:25.583Z,18.34
2022-10-07T06:18:54.843Z,18.12
2022-10-07T06:21:28.003Z,18.11
2022-10-07T06:23:58.163Z,17.70
2022-10-07T06:26:26.344Z,17.79
2022-10-07T06:28:54.691Z,17.59
2022-10-07T06:31:25.691Z,18.00
2022-10-07T06:33:55.466Z,18.21
2022-10-07T06:36:23.568Z,18.24
2022-10-07T06:38:53.231Z,18.59
2022-10-07T06:41:22.325Z,19.09
2022-10-07T06:43:50.799Z,19.39
2022-10-07T06:46:20.405Z,20.12
2022-10-07T06:48:50.601Z,20.85
2022-10-07T06:51:20.142Z,21.61
2022-10-07T06:53:52.942Z,22.78
2022-10-07T06:56:21.497Z,22.45
2022-10-07T06:58:50.468Z,22.35
2022-10-07T07:01:18.744Z,22.86
2022-10-07T07:03:47.264Z,23.41
2022-10-07T07:06:16.807Z,24.10
2022-10-07T07:08:46.030Z,24.13
2022-10-07T07:11:32.534Z,24.54
2022-10-07T07:14:02.033Z,24.34
2022-10-07T07:16:30.532Z,23.92
2022-10-07T07:19:01.850Z,24.12
2022-10-07T07:21:31.762Z,24.15
2022-10-07T07:24:01.354Z,24.25
2022-10-07T07:26:29.738Z,24.61
2022-10-07T07:28:59.926Z,24.65
2022-10-07T07:31:29.519Z,25.28
2022-10-07T07:34:00.786Z,26.55
2022-10-07T07:36:32.277Z,27.57
2022-10-07T07:39:01.878Z,27.76
2022-10-07T07:41:31.816Z,28.28
2022-10-07T07:44:02.363Z,29.01
2022-10-07T07:46:35.028Z,28.95
2022-10-07T07:49:03.971Z,28.52
2022-10-07T07:51:34.313Z,29.62
2022-10-07T07:54:02.879Z,29.20
2022-10-07T07:56:32.123Z,28.42
2022-10-07T07:59:01.109Z,27.89
2022-10-07T08:01:32.218Z,27.44
2022-10-07T08:04:00.920Z,26.34
2022-10-07T08:06:30.407Z,26.38
2022-10-07T08:09:00.288Z,27.38
2022-10-07T08:11:29.032Z,28.59
2022-10-07T08:13:57.711Z,29.71
2022-10-07T08:16:28.818Z,30.05
2022-10-07T08:18:58.456Z,29.52
2022-10-07T08:21:28.345Z,29.61
2022-10-07T08:23:58.617Z,30.47
2022-10-07T08:26:29.637Z,30.43
2022-10-07T08:28:58.067Z,29.32
2022-10-07T08:31:27.607Z,29.50
2022-10-07T08:33:57.719Z,29.45
2022-10-07T08:36:27.461Z,29.90
2022-10-07T08:38:56.125Z,30.63
2022-10-07T08:41:33.068Z,31.08
2022-10-07T08:44:11.175Z,30.88
2022-10-07T08:46:49.782Z,30.87
2022-10-07T08:49:22.637Z,29.68
2022-10-07T08:51:55.561Z,29.29
2022-10-07T08:54:27.972Z,29.53
2022-10-07T08:57:00.702Z,30.27
2022-10-07T08:59:30.342Z,29.84
2022-10-07T09:02:11.079Z,31.07
2022-10-07T09:04:49.090Z,31.65
2022-10-07T09:07:20.092Z,31.63
2022-10-07T09:09:53.746Z,31.65
2022-10-07T09:12:25.786Z,31.69
2022-10-07T09:14:57.315Z,31.56
2022-10-07T09:17:34.834Z,31.15
2022-10-07T09:20:07.697Z,31.70
2022-10-07T09:22:38.902Z,32.19
2022-10-07T09:25:20.652Z,33.51
2022-10-07T09:27:52.221Z,34.83
2022-10-07T09:30:21.069Z,34.44
2022-10-07T09:32:50.977Z,34.67
2022-10-07T09:35:22.175Z,35.82
2022-10-07T09:37:59.150Z,36.98
2022-10-07T09:40:36.879Z,36.82
2022-10-07T09:43:14.136Z,36.05
2022-10-07T09:45:46.414Z,36.42
2022-10-07T09:48:20.007Z,36.73
2022-10-07T09:50:48.191Z,35.79
2022-10-07T09:53:22.903Z,38.10
2022-10-07T09:55:52.737Z,39.22
2022-10-07T09:58:26.683Z,40.83
2022-10-07T10:00:57.347Z,41.03
2022-10-07T10:03:30.879Z,39.39
2022-10-07T10:06:00.698Z,37.35
2022-10-07T10:08:31.719Z,37.06
2022-10-07T10:11:01.569Z,37.69
2022-10-07T10:13:33.413Z,36.95
2022-10-07T10:16:02.084Z,36.24
2022-10-07T10:18:36.647Z,36.69
2022-10-07T10:21:23.023Z,37.61
2022-10-07T10:23:53.012Z,38.09
2022-10-07T10:26:42.028Z,39.04
2022-10-07T10:29:26.935Z,38.60
2022-10-07T10:32:30.629Z,40.38
2022-10-07T10:35:04.935Z,41.65
2022-10-07T10:37:58.423Z,42.35
2022-10-07T10:40:32.187Z,40.66
2022-10-07T10:43:12.643Z,38.81
2022-10-07T10:45:49.182Z,36.89
2022-10-07T10:48:29.197Z,35.83
2022-10-07T10:51:02.835Z,34.46
2022-10-07T10:53:38.386Z,34.76
2022-10-07T10:56:15.249Z,34.95
2022-10-07T10:58:55.634Z,35.81
2022-10-07T11:01:30.770Z,37.74
2022-10-07T11:04:14.786Z,39.40
2022-10-07T11:06:44.820Z,40.47
2022-10-07T11:09:17.897Z,42.34
2022-10-07T11:11:46.638Z,41.90
2022-10-07T11:14:17.322Z,42.38
2022-10-07T11:16:49.587Z,42.06
2022-10-07T11:19:22.204Z,41.75
2022-10-07T11:21:51.914Z,41.30
2022-10-07T11:24:23.830Z,42.78
2022-10-07T11:26:53.837Z,42.82
2022-10-07T11:29:24.156Z,42.57
2022-10-07T11:31:59.084Z,41.51
2022-10-07T11:34:36.048Z,42.43
2022-10-07T11:37:11.637Z,42.78
2022-10-07T11:39:40.416Z,41.33
2022-10-07T11:42:14.703Z,39.14
2022-10-07T11:44:52.161Z,36.17
2022-10-07T11:47:24.828Z,33.70
2022-10-07T11:49:57.905Z,31.94
2022-10-07T11:52:28.098Z,30.72
2022-10-07T11:55:00.723Z,29.48
2022-10-07T11:57:33.320Z,28.20
2022-10-07T12:00:06.021Z,27.88
2022-10-07T12:02:41.249Z,27.90
2022-10-07T12:05:57.757Z,27.82
2022-10-07T12:08:34.539Z,26.82
2022-10-07T12:11:48.332Z,27.02
2022-10-07T12:14:42.299Z,26.33
2022-10-07T12:17:22.563Z,25.56
2022-10-07T12:20:24.196Z,25.07
2022-10-07T12:23:26.060Z,24.94
2022-10-07T12:25:57.036Z,24.55
2022-10-07T12:28:28.952Z,24.47
2022-10-07T12:31:00.322Z,24.32
2022-10-07T12:33:32.110Z,23.68
2022-10-07T12:36:00.219Z,23.47
2022-10-07T12:38:30.176Z,23.86
2022-10-07T12:41:13.126Z,24.15
2022-10-07T12:43:49.583Z,24.23
2022-10-07T12:46:20.894Z,24.30
2022-10-07T12:48:53.861Z,24.52
2022-10-07T12:51:26.380Z,24.67
2022-10-07T12:53:54.751Z,24.28
2022-10-07T12:56:27.903Z,24.72
2022-10-07T12:59:49.870Z,25.15
2022-10-07T13:02:32.487Z,25.12
2022-10-07T13:05:43.750Z,25.36
2022-10-07T13:08:50.622Z,25.15
2022-10-07T13:11:54.271Z,24.97
2022-10-07T13:14:27.907Z,24.56
2022-10-07T13:17:00.917Z,24.57
2022-10-07T13:19:33.593Z,24.53
2022-10-07T13:22:07.037Z,24.36
2022-10-07T13:24:35.577Z,23.78
2022-10-07T13:27:09.028Z,23.90
2022-10-07T13:29:39.378Z,23.97
2022-10-07T13:32:13.036Z,24.05
2022-10-07T13:34:41.462Z,23.95
2022-10-07T13:37:28.744Z,24.62
2022-10-07T13:39:57.390Z,24.23
2022-10-07T13:42:28.773Z,24.47
2022-10-07T13:45:03.398Z,24.48
2022-10-07T13:47:33.999Z,24.23
2022-10-07T13:50:02.921Z,24.15
2022-10-07T13:52:33.623Z,24.41
2022-10-07T13:55:01.931Z,23.88
2022-10-07T13:57:31.482Z,24.05
2022-10-07T14:00:01.063Z,23.97
2022-10-07T14:02:30.948Z,24.06
2022-10-07T14:05:01.156Z,24.26
2022-10-07T14:07:30.093Z,24.28
2022-10-07T14:10:09.937Z,24.56
2022-10-07T14:12:39.829Z,24.14
2022-10-07T14:15:14.264Z,24.16
2022-10-07T14:17:47.318Z,23.78
2022-10-07T14:20:23.447Z,23.58
2022-10-07T14:22:54.211Z,23.17
2022-10-07T14:25:24.088Z,23.13
2022-10-07T14:28:09.310Z,23.30
2022-10-07T14:30:57.043Z,23.30
2022-10-07T14:33:49.042Z,23.38
2022-10-07T14:36:18.830Z,22.97
2022-10-07T14:38:48.211Z,23.04
2022-10-07T14:41:17.849Z,22.73
2022-10-07T14:43:47.692Z,22.52
2022-10-07T14:46:20.826Z,22.80
2022-10-07T14:48:51.042Z,22.58
2022-10-07T14:51:22.048Z,22.58
2022-10-07T14:53:50.977Z,23.16
2022-10-07T14:56:26.403Z,22.87
2022-10-07T14:58:54.985Z,22.35
2022-10-07T15:01:23.129Z,22.40
2022-10-07T15:03:53.151Z,22.67
2022-10-07T15:06:21.922Z,22.68
2022-10-07T15:08:50.294Z,22.68
2022-10-07T15:11:20.603Z,22.80
2022-10-07T15:13:50.233Z,22.71
2022-10-07T15:16:20.685Z,22.71
2022-10-07T15:18:52.350Z,22.54
2022-10-07T15:21:23.510Z,22.73
2022-10-07T15:23:53.130Z,22.44
2022-10-07T15:26:24.501Z,22.22
2022-10-07T15:28:54.463Z,22.29
2022-10-07T15:31:28.882Z,22.32
2022-10-07T15:44:03.017Z,22.32
2022-10-07T15:47:20.322Z,21.82
2022-10-07T15:50:25.157Z,21.44
2022-10-07T15:53:35.284Z,21.73
2022-10-07T15:56:15.407Z,21.19
2022-10-07T15:59:09.029Z,21.36
2022-10-07T16:01:56.467Z,20.96
2022-10-07T16:06:05.758Z,21.36
2022-10-07T16:09:06.477Z,21.11
2022-10-07T16:11:37.305Z,20.71
2022-10-07T16:14:24.702Z,20.65
2022-10-07T16:18:10.734Z,21.22
2022-10-07T16:21:48.126Z,20.62
2022-10-07T16:25:51.589Z,20.53
2022-10-07T16:28:40.205Z,20.14
2022-10-07T16:31:08.752Z,19.77
2022-10-07T16:33:37.092Z,19.71
2022-10-07T16:36:12.358Z,20.08
2022-10-07T16:38:41.587Z,19.71
2022-10-07T16:41:10.166Z,19.60
2022-10-07T16:43:39.727Z,19.73
2022-10-07T16:46:10.389Z,19.56
2022-10-07T16:48:40.269Z,19.67
2022-10-07T16:51:10.368Z,19.56
2022-10-07T16:53:38.569Z,19.22
2022-10-07T16:56:07.757Z,19.35
2022-10-07T16:58:37.575Z,19.13
2022-10-07T17:01:09.590Z,19.46
2022-10-07T17:03:39.794Z,19.24
2022-10-07T17:06:09.387Z,19.31
2022-10-07T17:08:41.925Z,18.89
2022-10-07T17:11:28.608Z,19.09
2022-10-07T17:13:57.603Z,18.91
2022-10-07T17:16:28.140Z,18.98
2022-10-07T17:18:56.725Z,18.82
2022-10-07T17:21:24.889Z,18.64
2022-10-07T17:23:57.857Z,18.66
2022-10-07T17:26:27.330Z,18.71
2022-10-07T17:29:00.766Z,19.02
2022-10-07T17:31:33.862Z,18.76
2022-10-07T17:34:03.441Z,18.50
2022-10-07T17:36:32.282Z,18.37
2022-10-07T17:39:00.538Z,18.39
2022-10-07T17:41:30.573Z,18.60
2022-10-07T17:44:00.380Z,18.63
2022-10-07T17:46:31.515Z,18.52
2022-10-07T17:49:03.527Z,18.56
2022-10-07T17:51:33.058Z,18.38
2022-10-07T17:54:02.285Z,18.40
2022-10-07T17:56:32.236Z,18.47
2022-10-07T17:59:00.630Z,18.17
2022-10-07T18:01:31.420Z,18.42
2022-10-07T18:04:02.054Z,18.60
2022-10-07T18:06:33.683Z,18.41
2022-10-07T18:09:03.468Z,18.09
2022-10-07T18:11:46.169Z,18.04
2022-10-07T18:14:35.718Z,18.46
2022-10-07T18:17:04.229Z,18.05
2022-10-07T18:19:33.797Z,18.33
2022-10-07T18:22:03.042Z,18.02
2022-10-07T18:24:31.176Z,18.06
2022-10-07T18:27:00.987Z,18.07
2022-10-07T18:29:30.436Z,17.97
2022-10-07T18:31:58.835Z,17.99
2022-10-07T18:34:27.475Z,17.82
2022-10-07T18:36:57.485Z,18.06
2022-10-07T18:39:27.526Z,17.87
2022-10-07T18:41:55.917Z,17.75
2022-10-07T18:44:24.193Z,17.84
2022-10-07T18:46:52.279Z,17.74
2022-10-07T18:49:20.680Z,17.81
2022-10-07T18:51:50.707Z,17.72
2022-10-07T18:54:20.964Z,17.93
2022-10-07T18:56:49.946Z,17.62
2022-10-07T18:59:18.662Z,17.46
2022-10-07T19:01:50.477Z,17.26
2022-10-07T19:04:19.485Z,17.29
2022-10-07T19:06:48.038Z,17.07
2022-10-07T19:09:18.199Z,17.39
2022-10-07T19:11:48.394Z,17.22
2022-10-07T19:14:16.241Z,17.13
2022-10-07T19:16:46.135Z,17.26
2022-10-07T19:19:17.064Z,17.19
2022-10-07T19:21:46.447Z,16.91
2022-10-07T19:24:14.769Z,16.89
2022-10-07T19:26:44.580Z,17.06
2022-10-07T19:29:14.555Z,17.21
2022-10-07T19:31:44.341Z,17.07
2022-10-07T19:34:14.618Z,17.05
2022-10-07T19:36:47.222Z,16.89
2022-10-07T19:39:17.322Z,16.80
2022-10-07T19:41:46.053Z,16.71
2022-10-07T19:44:16.435Z,17.00
2022-10-07T19:46:44.876Z,16.71
2022-10-07T19:49:13.156Z,16.48
2022-10-07T19:51:42.633Z,16.36
2022-10-07T19:54:13.028Z,16.44
2022-10-07T19:56:41.834Z,16.63
2022-10-07T19:59:11.838Z,16.73
2022-10-07T20:01:43.035Z,16.81
2022-10-07T20:04:13.239Z,17.21
2022-10-07T20:06:41.698Z,16.52
2022-10-07T20:09:12.354Z,16.79
2022-10-07T20:11:40.826Z,16.33
2022-10-07T20:14:10.069Z,16.29
2022-10-07T20:16:39.282Z,16.27
2022-10-07T20:19:14.361Z,16.55
2022-10-07T20:21:42.661Z,16.28
2022-10-07T20:24:15.414Z,16.52
2022-10-07T20:26:44.530Z,16.38
2022-10-07T20:29:15.297Z,16.29
2022-10-07T20:31:44.970Z,16.21
2022-10-07T20:34:16.302Z,16.38
2022-10-07T20:36:44.733Z,16.15
2022-10-07T20:39:34.334Z,16.42
2022-10-07T20:42:20.875Z,16.20
2022-10-07T20:44:49.463Z,16.15
2022-10-07T20:47:18.520Z,16.31
2022-10-07T20:49:48.838Z,16.57
2022-10-07T20:52:19.067Z,16.66
2022-10-07T20:54:48.190Z,16.59
2022-10-07T20:57:17.933Z,16.66
2022-10-07T20:59:46.407Z,16.59
2022-10-07T21:02:16.239Z,16.74
2022-10-07T21:04:46.963Z,16.64
2022-10-07T21:07:17.729Z,17.07
2022-10-07T21:09:46.457Z,16.90
2022-10-07T21:12:16.145Z,16.97
2022-10-07T21:14:44.415Z,16.80
2022-10-07T21:17:13.468Z,16.95
2022-10-07T21:19:41.887Z,16.78
2022-10-07T21:22:10.169Z,16.85
2022-10-07T21:24:39.947Z,16.97
2022-10-07T21:27:09.253Z,16.65
2022-10-07T21:29:41.059Z,16.59
2022-10-07T21:32:10.967Z,16.66
2022-10-07T21:34:39.557Z,16.45
2022-10-07T21:37:07.630Z,16.36
2022-10-07T21:39:36.147Z,16.33
2022-10-07T21:42:05.692Z,16.59
2022-10-07T21:44:35.526Z,16.23
2022-10-07T21:47:05.133Z,16.21
2022-10-07T21:49:33.468Z,16.30
2022-10-07T21:52:01.604Z,16.31
2022-10-07T21:54:30.478Z,16.40
2022-10-07T21:56:58.656Z,16.42
2022-10-07T21:59:28.211Z,16.73
2022-10-07T22:01:56.801Z,16.45
2022-10-07T22:04:25.057Z,16.42
2022-10-07T22:07:10.566Z,16.39
2022-10-07T22:09:38.898Z,16.16
2022-10-07T22:12:07.335Z,16.16
2022-10-07T22:14:37.156Z,16.26
2022-10-07T22:17:05.424Z,16.08
2022-10-07T22:19:34.856Z,16.30
2022-10-07T22:22:03.370Z,16.12
2022-10-07T22:24:31.906Z,16.16
2022-10-07T22:27:00.166Z,16.10
2022-10-07T22:29:29.775Z,16.15
2022-10-07T22:31:59.174Z,16.27
2022-10-07T22:34:44.887Z,15.91
2022-10-07T22:37:13.182Z,15.85
2022-10-07T22:39:41.479Z,15.72
2022-10-07T22:42:09.967Z,15.78
2022-10-07T22:44:38.360Z,15.66
2022-10-07T22:47:07.890Z,15.84
2022-10-07T22:49:35.962Z,15.53
2022-10-07T22:52:04.594Z,15.48
2022-10-07T22:54:32.648Z,15.43
2022-10-07T22:57:00.709Z,15.42
2022-10-07T22:59:29.285Z,15.44
2022-10-07T23:01:57.368Z,15.33
2022-10-07T23:04:26.854Z,15.57
2022-10-07T23:06:55.093Z,15.17
2022-10-07T23:09:23.233Z,15.17
2022-10-07T23:11:51.659Z,15.12
2022-10-07T23:14:20.168Z,15.07
2022-10-07T23:16:48.249Z,15.02
2022-10-07T23:19:16.377Z,14.97
2022-10-07T23:21:47.086Z,15.24
2022-10-07T23:24:16.045Z,14.95
2022-10-07T23:26:45.940Z,14.97
2022-10-07T23:29:14.528Z,15.16
2022-10-07T23:31:42.618Z,15.12
2022-10-07T23:34:12.091Z,15.46
2022-10-07T23:36:40.855Z,15.28
2022-10-07T23:39:10.367Z,15.67
2022-10-07T23:41:38.462Z,15.46
2022-10-07T23:44:07.062Z,15.72
2022-10-07T23:46:36.415Z,15.80
2022-10-07T23:49:05.305Z,15.90
2022-10-07T23:51:34.039Z,15.73
2022-10-07T23:54:04.140Z,15.76
2022-10-07T23:56:34.351Z,15.61
2022-10-07T23:59:04.060Z,15.27
